Time;durP1;ratioP1;P1;durP2;ratioP2;P2;SDS_P1;SDS_P2;PMS_P1;PMS_P2;Temp;Humidity;BMP_temperature;BMP_pressure;BME280_temperature;BME280_humidity;BME280_pressure;Samples;Min_cycle;Max_cycle;Signal;HPM_P1;HPM_P2
2023/08/17 00:00:51;;;;;;;10.65;7.20;;;;;;;19.30;81.20;96002.28;2064625;28;20054;-57
2023/08/17 00:01:52;;;;;;;10.73;7.97;;;;;;;19.29;81.21;95991.88;2065078;28;20471;-57
2023/08/17 00:02:53;;;;;;;9.77;7.78;;;;;;;19.28;81.31;96000.75;2066025;28;20061;-57
2023/08/17 00:03:54;;;;;;;12.35;7.55;;;;;;;19.30;80.83;95996.16;2065875;28;20061;-57
2023/08/17 00:04:55;;;;;;;10.43;7.80;;;;;;;19.29;81.35;95991.88;2065478;28;20506;-57
2023/08/17 00:05:56;;;;;;;8.98;6.80;;;;;;;19.31;81.20;95992.59;2066029;28;20057;-57
2023/08/17 00:06:57;;;;;;;10.02;6.97;;;;;;;19.31;81.21;95992.59;2065979;28;20049;-57
2023/08/17 00:08:00;;;;;;;11.32;7.03;;;;;;;19.22;81.36;95978.38;2064985;28;20126;-57
2023/08/17 00:09:03;;;;;;;10.45;7.97;;;;;;;19.20;81.91;95992.63;2065757;28;20062;-57
2023/08/17 00:10:04;;;;;;;9.13;7.18;;;;;;;19.16;82.00;95995.53;2065327;28;20482;-57
2023/08/17 00:11:05;;;;;;;9.38;7.65;;;;;;;19.13;82.08;95989.66;2065170;28;20422;-57
2023/08/17 00:12:07;;;;;;;9.55;7.65;;;;;;;19.11;82.30;95991.56;2065900;28;20058;-57
2023/08/17 00:13:08;;;;;;;10.73;7.07;;;;;;;19.07;82.56;95991.00;2064621;28;20055;-57
2023/08/17 00:14:10;;;;;;;13.55;7.88;;;;;;;19.00;82.81;95996.88;2065025;28;20054;-57
2023/08/17 00:15:11;;;;;;;8.02;6.90;;;;;;;18.97;83.07;95997.13;2065779;28;20426;-57
2023/08/17 00:16:13;;;;;;;10.40;7.35;;;;;;;18.97;83.01;96000.59;2065388;28;20065;-57
2023/08/17 00:17:14;;;;;;;11.90;7.15;;;;;;;18.99;82.63;96000.47;2065857;28;20054;-57
2023/08/17 00:18:15;;;;;;;10.55;6.72;;;;;;;19.00;82.44;96010.03;2065453;28;20054;-57
2023/08/17 00:19:17;;;;;;;16.10;7.50;;;;;;;19.00;82.23;96010.03;2065461;28;20080;-57
2023/08/17 00:20:18;;;;;;;10.50;8.18;;;;;;;18.96;82.29;96006.81;2065225;28;20486;-57
2023/08/17 00:21:19;;;;;;;11.32;8.75;;;;;;;18.95;82.49;96007.75;2065803;28;20057;-57
2023/08/17 00:22:20;;;;;;;9.77;8.63;;;;;;;18.93;82.44;96004.44;2065614;28;20050;-57
2023/08/17 00:23:21;;;;;;;10.63;8.50;;;;;;;18.88;82.28;95998.72;2065573;28;20058;-56
2023/08/17 00:24:22;;;;;;;12.30;9.10;;;;;;;18.91;82.04;96006.34;2065177;28;20057;-57
2023/08/17 00:25:23;;;;;;;11.43;8.05;;;;;;;18.87;82.11;96010.19;2066035;28;20058;-57
2023/08/17 00:26:25;;;;;;;10.25;7.85;;;;;;;18.87;82.33;96008.41;2066046;28;20054;-57
2023/08/17 00:27:26;;;;;;;9.90;8.80;;;;;;;18.88;82.26;96010.06;2065471;28;20054;-57
2023/08/17 00:28:28;;;;;;;11.27;8.45;;;;;;;18.87;82.64;96015.44;2065255;28;20073;-57
2023/08/17 00:29:29;;;;;;;14.43;9.35;;;;;;;18.84;82.61;96010.44;2056874;28;20051;-57
2023/08/17 00:30:31;;;;;;;11.52;8.57;;;;;;;18.78;82.46;96009.13;2056813;28;20058;-57
2023/08/17 00:31:32;;;;;;;10.50;9.05;;;;;;;18.75;82.58;96014.63;2065345;28;20058;-57
2023/08/17 00:32:33;;;;;;;11.95;9.02;;;;;;;18.73;83.18;96016.50;2065223;28;20058;-57
2023/08/17 00:33:34;;;;;;;10.07;9.05;;;;;;;18.69;83.16;96010.66;2057144;28;20054;-57
2023/08/17 00:34:35;;;;;;;11.75;9.38;;;;;;;18.68;83.38;96024.78;2056704;28;20059;-57
2023/08/17 00:35:37;;;;;;;9.82;8.85;;;;;;;18.64;83.26;96018.09;2064929;28;20057;-57
2023/08/17 00:36:38;;;;;;;12.43;8.70;;;;;;;18.64;83.76;96017.25;2048893;28;20125;-57
2023/08/17 00:37:39;;;;;;;11.88;9.38;;;;;;;18.62;83.40;96014.72;2056859;28;20062;-57
2023/08/17 00:38:40;;;;;;;14.55;9.18;;;;;;;18.62;83.75;96019.16;2065221;28;20445;-57
2023/08/17 00:39:41;;;;;;;13.27;9.20;;;;;;;18.62;83.56;96020.00;2065183;28;20054;-57
2023/08/17 00:40:43;;;;;;;10.52;9.20;;;;;;;18.62;83.36;96020.00;2056698;28;20082;-57
2023/08/17 00:41:44;;;;;;;10.75;8.65;;;;;;;18.59;83.84;96014.97;2056392;28;20055;-57
2023/08/17 00:42:45;;;;;;;10.45;8.85;;;;;;;18.59;83.91;96016.78;2057203;28;20509;-57
2023/08/17 00:43:46;;;;;;;14.00;8.68;;;;;;;18.57;83.80;96016.06;2056524;28;20471;-57
2023/08/17 00:44:47;;;;;;;11.48;9.32;;;;;;;18.56;83.67;96017.84;2064972;28;20103;-57
2023/08/17 00:45:48;;;;;;;12.15;9.50;;;;;;;18.53;83.91;96015.47;2065225;28;20058;-57
2023/08/17 00:46:49;;;;;;;13.98;8.98;;;;;;;18.52;83.72;96025.16;2065616;28;20498;-57
2023/08/17 00:47:53;;;;;;;11.60;8.68;;;;;;;18.51;84.51;96020.00;2065366;28;20050;-57
2023/08/17 00:48:54;;;;;;;9.90;8.52;;;;;;;18.45;84.19;96010.81;2064643;28;20057;-57
2023/08/17 00:49:56;;;;;;;9.55;8.55;;;;;;;18.44;84.38;96003.03;2065522;28;20050;-57
2023/08/17 00:50:57;;;;;;;12.43;8.70;;;;;;;18.41;84.59;96005.91;2056894;28;20054;-57
2023/08/17 00:51:58;;;;;;;10.38;9.25;;;;;;;18.45;84.40;96016.06;2040974;29;20048;-56
2023/08/17 00:52:59;;;;;;;14.80;9.40;;;;;;;18.44;84.57;96005.66;2033068;29;20436;-57
2023/08/17 00:54:02;;;;;;;14.98;10.13;;;;;;;18.38;84.65;95998.25;2048700;28;20062;-57
2023/08/17 00:55:04;;;;;;;10.68;8.68;;;;;;;18.32;85.04;95996.13;2048989;29;20474;-57
2023/08/17 00:56:05;;;;;;;11.13;9.32;;;;;;;18.32;85.42;95999.56;2049036;29;20054;-57
2023/08/17 00:57:08;;;;;;;13.98;8.90;;;;;;;18.30;84.99;95998.84;2057016;28;20058;-57
2023/08/17 00:58:09;;;;;;;9.80;8.35;;;;;;;18.26;85.27;95995.63;2065231;28;20418;-57
2023/08/17 00:59:10;;;;;;;14.00;9.02;;;;;;;18.27;85.61;95992.03;2064424;28;20051;-57
2023/08/17 01:00:12;;;;;;;11.73;7.97;;;;;;;18.29;85.89;95989.31;2065590;28;20053;-57
2023/08/17 01:01:14;;;;;;;10.13;8.45;;;;;;;18.30;85.72;95994.44;2064992;28;20050;-57
2023/08/17 01:02:15;;;;;;;9.98;8.27;;;;;;;18.32;85.74;95983.81;2064949;28;20050;-57
2023/08/17 01:03:16;;;;;;;10.68;8.10;;;;;;;18.40;85.83;95993.72;2064543;28;20054;-57
2023/08/17 01:04:19;;;;;;;11.80;8.25;;;;;;;18.36;85.20;95987.03;2057021;28;20067;-57
2023/08/17 01:05:21;;;;;;;11.10;7.57;;;;;;;18.40;85.33;95993.72;2056981;28;20073;-57
2023/08/17 01:06:22;;;;;;;11.93;8.15;;;;;;;18.39;86.07;95999.91;2057066;28;20082;-57
2023/08/17 01:07:23;;;;;;;11.35;8.32;;;;;;;18.39;86.05;95995.53;2065641;28;20042;-57
2023/08/17 01:08:24;;;;;;;10.07;8.68;;;;;;;18.37;86.44;96002.69;2065131;28;20050;-57
2023/08/17 01:09:25;;;;;;;13.40;8.40;;;;;;;18.39;85.99;96006.03;2056813;28;20062;-57
2023/08/17 01:10:52;;;;;;;10.57;8.48;;;;;;;18.38;85.97;96003.53;2056577;28;20070;-57
2023/08/17 01:11:57;;;;;;;12.70;8.45;;;;;;;18.33;86.30;96010.94;2052423;28;20150;-57
2023/08/17 01:13:11;;;;;;;10.57;8.52;;;;;;;18.29;85.91;96013.78;2049803;28;20043;-57
2023/08/17 01:14:21;;;;;;;11.70;8.80;;;;;;;18.30;86.10;96012.00;2048839;29;20055;-57
2023/08/17 01:15:33;;;;;;;11.02;8.30;;;;;;;18.28;86.08;96016.53;2043782;28;20503;-57
2023/08/17 01:16:52;;;;;;;9.45;8.02;;;;;;;18.27;86.15;96018.31;2042570;29;20054;-57
2023/08/17 01:18:17;;;;;;;9.07;7.53;;;;;;;18.17;86.22;96000.75;2054090;28;20059;-57
2023/08/17 01:19:25;;;;;;;10.77;9.10;;;;;;;18.24;86.32;96010.69;2065203;28;20058;-57
2023/08/17 01:20:27;;;;;;;11.07;8.60;;;;;;;18.24;86.12;96008.06;2065013;28;20073;-57
2023/08/17 01:21:42;;;;;;;10.43;8.73;;;;;;;18.22;86.52;96006.50;2056834;28;20055;-57
2023/08/17 01:22:45;;;;;;;14.93;8.75;;;;;;;18.28;86.36;96016.53;2051052;28;20059;-57
2023/08/17 01:23:46;;;;;;;12.30;8.45;;;;;;;18.22;86.14;95994.19;2056371;28;20062;-57
2023/08/17 01:24:47;;;;;;;11.70;8.10;;;;;;;18.29;86.28;96011.16;2065860;28;20057;-57
2023/08/17 01:25:50;;;;;;;9.95;7.60;;;;;;;18.24;86.65;96000.16;2058023;28;20376;-57
2023/08/17 01:26:51;;;;;;;12.73;8.43;;;;;;;18.33;86.62;96011.75;2058198;28;20483;-57
2023/08/17 01:27:52;;;;;;;10.48;8.23;;;;;;;18.35;86.35;96001.97;2065783;28;20069;-57
2023/08/17 01:28:53;;;;;;;10.27;7.65;;;;;;;18.37;86.33;96013.19;2058420;28;20062;-57
2023/08/17 01:29:54;;;;;;;11.20;7.82;;;;;;;18.38;85.79;96006.97;2057545;28;20077;-56
2023/08/17 01:30:58;;;;;;;11.57;7.80;;;;;;;18.38;86.23;96003.53;2058350;28;20058;-57
2023/08/17 01:32:20;;;;;;;11.55;7.72;;;;;;;18.39;85.69;95999.91;2058702;28;20384;-57
2023/08/17 01:33:29;;;;;;;9.95;7.80;;;;;;;18.37;86.11;96007.13;2058445;28;20456;-57
2023/08/17 01:34:32;;;;;;;;;;;;;;;18.33;86.00;95992.53;2044248;29;20519;-57
2023/08/17 01:36:12;;;;;;;11.13;7.50;;;;;;;18.19;86.34;95983.91;2051000;28;19914;-57
2023/08/17 01:37:15;;;;;;;10.27;7.68;;;;;;;18.26;86.44;95997.44;2026217;29;20056;-57
2023/08/17 01:38:20;;;;;;;11.82;8.02;;;;;;;18.26;86.21;95990.38;2041386;29;20066;-57
2023/08/17 01:39:23;;;;;;;12.10;8.13;;;;;;;18.26;86.63;95987.75;2043081;29;20063;-57
2023/08/17 01:40:28;;;;;;;10.13;7.57;;;;;;;18.25;86.24;95990.50;2051119;28;20055;-57
2023/08/17 01:41:29;;;;;;;11.93;8.10;;;;;;;18.28;85.82;95983.22;2050353;29;20054;-57
2023/08/17 01:42:30;;;;;;;9.55;7.30;;;;;;;18.33;86.15;95980.22;2050171;29;20055;-57
2023/08/17 01:43:31;;;;;;;9.02;8.13;;;;;;;18.41;86.13;95984.88;2042186;29;20066;-58
2023/08/17 01:44:33;;;;;;;11.77;8.25;;;;;;;18.39;85.69;95987.63;2042489;28;20066;-57
2023/08/17 01:45:35;;;;;;;9.55;7.78;;;;;;;18.37;86.24;95975.56;2050293;28;20062;-57
2023/08/17 01:46:36;;;;;;;11.43;7.78;;;;;;;18.40;85.93;95977.94;2049967;28;20078;-57
2023/08/17 01:47:37;;;;;;;10.85;8.13;;;;;;;18.39;85.90;95979.75;2050248;29;20055;-57
2023/08/17 01:48:38;;;;;;;10.02;7.82;;;;;;;18.43;85.99;95977.69;2057491;28;20065;-57
2023/08/17 01:49:39;;;;;;;13.98;8.18;;;;;;;18.44;85.80;95977.59;2066744;28;20418;-57
2023/08/17 01:50:41;;;;;;;10.13;7.90;;;;;;;18.42;85.61;95971.63;2057351;28;20483;-58
2023/08/17 01:51:42;;;;;;;10.35;7.88;;;;;;;18.48;85.66;95986.06;2057962;28;20058;-57
2023/08/17 01:52:43;;;;;;;10.02;8.23;;;;;;;18.46;85.95;95975.66;2066773;28;20054;-57
2023/08/17 01:53:44;;;;;;;8.68;7.65;;;;;;;18.43;85.86;95967.19;2066600;28;20062;-57
2023/08/17 01:54:45;;;;;;;10.23;7.85;;;;;;;18.50;85.78;95981.53;2066327;28;20061;-57
2023/08/17 01:55:47;;;;;;;9.80;8.05;;;;;;;18.50;85.41;95981.53;2058061;28;20066;-57
2023/08/17 01:56:48;;;;;;;8.98;7.95;;;;;;;18.48;85.46;95979.00;2050093;28;20463;-57
2023/08/17 01:57:49;;;;;;;12.10;8.10;;;;;;;18.48;85.44;95981.63;2058307;28;20055;-57
2023/08/17 01:58:50;;;;;;;13.05;8.07;;;;;;;18.49;85.86;95982.47;2049771;28;20055;-57
2023/08/17 01:59:51;;;;;;;11.27;8.80;;;;;;;18.48;85.93;95979.00;2050103;29;20078;-57
2023/08/17 02:00:53;;;;;;;11.88;8.88;;;;;;;18.45;85.83;95975.78;2057725;28;20062;-57
2023/08/17 02:01:54;;;;;;;10.75;8.23;;;;;;;18.45;85.94;95976.63;2057942;28;20051;-57
2023/08/17 02:02:55;;;;;;;10.13;8.20;;;;;;;18.40;86.08;95978.78;2058024;28;20051;-57
2023/08/17 02:03:56;;;;;;;9.68;7.90;;;;;;;18.35;86.15;95972.22;2058173;28;20065;-57
2023/08/17 02:04:57;;;;;;;12.48;8.85;;;;;;;18.30;86.94;95967.31;2050237;28;20058;-57
2023/08/17 02:05:59;;;;;;;13.70;8.57;;;;;;;18.31;87.14;95971.63;2058361;28;20138;-57
2023/08/17 02:07:00;;;;;;;10.95;8.23;;;;;;;18.29;87.42;95973.53;2065721;28;20058;-57
2023/08/17 02:08:01;;;;;;;12.93;9.48;;;;;;;18.29;87.66;95971.75;2066621;28;20061;-57
2023/08/17 02:09:03;;;;;;;12.05;9.25;;;;;;;18.28;87.85;95970.06;2057907;28;20057;-57
2023/08/17 02:10:04;;;;;;;11.18;8.80;;;;;;;18.28;87.46;95970.06;2057868;28;20144;-57
2023/08/17 02:11:07;;;;;;;11.43;8.95;;;;;;;18.29;87.52;95969.09;2057858;28;20471;-57
2023/08/17 02:12:08;;;;;;;11.80;8.73;;;;;;;18.26;87.68;95969.34;2057942;28;20054;-58
2023/08/17 02:13:09;;;;;;;10.88;9.60;;;;;;;18.24;88.17;95963.38;2057349;28;20066;-57
2023/08/17 02:14:10;;;;;;;12.45;9.32;;;;;;;18.27;87.37;95972.81;2057473;28;20055;-57
2023/08/17 02:15:11;;;;;;;12.20;8.90;;;;;;;18.26;88.20;95965.91;2057758;28;20430;-57
2023/08/17 02:16:12;;;;;;;13.88;10.10;;;;;;;18.24;87.98;95968.63;2065654;28;20533;-57
2023/08/17 02:17:16;;;;;;;11.13;8.88;;;;;;;18.16;88.49;95955.25;2058066;28;20058;-57
2023/08/17 02:18:17;;;;;;;13.10;8.98;;;;;;;18.16;88.83;95973.66;2057850;28;20055;-57
2023/08/17 02:19:18;;;;;;;13.15;9.23;;;;;;;18.16;88.63;95963.13;2050148;28;20499;-57
2023/08/17 02:20:19;;;;;;;10.88;8.90;;;;;;;18.14;88.79;95965.03;2057897;28;20055;-57
2023/08/17 02:21:20;;;;;;;12.23;9.27;;;;;;;18.14;89.35;95970.31;2066171;28;20050;-57
2023/08/17 02:22:21;;;;;;;11.43;9.65;;;;;;;18.14;89.21;95967.66;2066573;28;20500;-57
2023/08/17 02:23:22;;;;;;;11.70;9.40;;;;;;;18.13;89.18;95965.19;2057917;28;20061;-57
2023/08/17 02:24:24;;;;;;;11.90;9.82;;;;;;;18.14;89.27;95966.84;2057864;28;20054;-57
2023/08/17 02:25:35;;;;;;;10.63;9.02;;;;;;;18.09;89.38;95959.31;2057617;28;20053;-57
2023/08/17 02:26:38;;;;;;;12.32;10.10;;;;;;;18.13;89.05;95973.06;2058873;28;20050;-57
2023/08/17 02:27:39;;;;;;;13.88;10.35;;;;;;;18.05;89.05;95958.72;2057269;28;20066;-57
2023/08/17 02:28:40;;;;;;;13.48;9.85;;;;;;;18.12;89.42;95966.13;2058081;28;20051;-57
2023/08/17 02:29:41;;;;;;;11.77;8.95;;;;;;;18.12;89.04;95968.75;2065696;28;20054;-57
2023/08/17 02:30:43;;;;;;;12.27;9.57;;;;;;;18.10;89.34;95961.00;2057648;28;20502;-57
2023/08/17 02:31:44;;;;;;;15.00;9.90;;;;;;;18.14;89.27;95961.59;2057601;28;20050;-57
2023/08/17 02:32:45;;;;;;;11.63;9.80;;;;;;;18.14;89.51;95966.84;2066067;28;20058;-57
2023/08/17 02:33:46;;;;;;;11.43;9.27;;;;;;;18.14;89.00;95954.53;2066229;28;20058;-57
2023/08/17 02:34:47;;;;;;;13.90;9.85;;;;;;;18.15;88.80;95964.09;2057610;28;20066;-57
2023/08/17 02:35:51;;;;;;;10.98;9.85;;;;;;;18.13;88.94;95952.03;2057187;28;20062;-57
2023/08/17 02:36:52;;;;;;;13.32;11.50;;;;;;;18.17;89.16;95956.09;2058016;28;20110;-57
2023/08/17 02:37:54;;;;;;;12.10;10.80;;;;;;;18.15;88.78;95953.59;2066334;28;20058;-57
2023/08/17 02:38:55;;;;;;;12.60;10.60;;;;;;;18.18;88.61;95952.53;2057667;28;20055;-57
2023/08/17 02:39:56;;;;;;;14.50;10.27;;;;;;;18.16;88.85;95957.88;2057407;28;20061;-57
2023/08/17 02:40:57;;;;;;;13.30;10.80;;;;;;;18.15;89.39;95958.84;2065725;28;20054;-57
2023/08/17 02:41:59;;;;;;;12.00;10.48;;;;;;;18.13;89.13;95960.75;2065757;28;20057;-57
2023/08/17 02:43:00;;;;;;;12.23;9.77;;;;;;;18.12;89.22;95963.50;2066052;28;20438;-57
2023/08/17 02:44:01;;;;;;;11.80;10.52;;;;;;;18.12;89.57;95963.50;2065836;28;20054;-57
2023/08/17 02:45:02;;;;;;;12.23;10.30;;;;;;;18.10;89.05;95965.41;2066429;28;20482;-57
2023/08/17 02:46:06;;;;;;;13.27;10.55;;;;;;;18.11;89.16;95973.16;2066334;28;20407;-57
2023/08/17 02:47:08;;;;;;;15.52;11.25;;;;;;;18.09;89.54;95969.81;2057219;28;20051;-57
2023/08/17 02:48:09;;;;;;;14.43;10.68;;;;;;;18.06;89.75;95972.69;2057608;28;20047;-57
2023/08/17 02:49:10;;;;;;;14.15;10.68;;;;;;;18.07;89.89;95969.13;2065826;28;20411;-57
2023/08/17 02:50:11;;;;;;;12.65;11.20;;;;;;;18.02;89.64;95973.91;2065692;28;20057;-57
2023/08/17 02:51:12;;;;;;;13.65;11.73;;;;;;;17.99;89.85;95972.34;2066397;28;20058;-57
2023/08/17 02:52:13;;;;;;;13.15;11.15;;;;;;;17.97;90.47;95976.88;2057248;28;20046;-57
2023/08/17 02:53:14;;;;;;;13.73;11.13;;;;;;;17.94;90.24;95971.03;2057290;28;20046;-57
2023/08/17 02:54:15;;;;;;;14.68;12.65;;;;;;;17.90;90.23;95975.66;2065680;28;20054;-57
2023/08/17 02:55:16;;;;;;;15.70;11.55;;;;;;;17.84;91.23;95960.38;2066238;28;20065;-57
2023/08/17 02:56:18;;;;;;;14.77;12.02;;;;;;;17.84;91.16;95970.88;2065667;28;20061;-57
2023/08/17 02:57:19;;;;;;;14.20;11.65;;;;;;;17.78;91.53;95972.16;2057908;28;20069;-57
2023/08/17 02:58:21;;;;;;;13.85;11.70;;;;;;;17.74;91.30;95975.97;2049439;28;20062;-57
2023/08/17 02:59:22;;;;;;;15.07;13.15;;;;;;;17.69;92.00;95967.59;2057892;28;20062;-57
2023/08/17 03:00:23;;;;;;;14.85;13.30;;;;;;;17.67;92.25;95972.16;2056950;28;20099;-57
2023/08/17 03:01:24;;;;;;;14.70;13.13;;;;;;;17.66;91.91;95983.59;2057296;28;20051;-57
2023/08/17 03:02:26;;;;;;;15.82;13.90;;;;;;;17.62;92.43;95974.28;2057210;28;20050;-57
2023/08/17 03:03:27;;;;;;;17.45;14.73;;;;;;;17.59;93.24;95975.34;2049385;28;20051;-57
2023/08/17 03:04:28;;;;;;;16.77;14.65;;;;;;;17.59;92.85;95975.34;2057676;28;20411;-57
2023/08/17 03:05:31;;;;;;;15.90;14.10;;;;;;;17.57;93.36;95973.78;2057088;28;20055;-57
2023/08/17 03:06:32;;;;;;;16.08;12.65;;;;;;;17.53;93.47;95967.91;2049517;29;20066;-57
2023/08/17 03:07:33;;;;;;;16.80;14.90;;;;;;;17.52;93.49;95974.13;2057579;28;20059;-57
2023/08/17 03:08:34;;;;;;;20.65;14.68;;;;;;;17.50;94.23;95975.19;2057350;28;20051;-57
2023/08/17 03:09:35;;;;;;;25.70;15.32;;;;;;;17.46;94.35;95966.72;2057687;28;20058;-57
2023/08/17 03:10:37;;;;;;;15.88;14.10;;;;;;;17.46;94.31;95973.78;2065317;28;20054;-57
2023/08/17 03:11:38;;;;;;;17.85;14.65;;;;;;;17.42;93.99;95973.13;2066249;28;20418;-57
2023/08/17 03:12:39;;;;;;;21.33;14.65;;;;;;;17.37;94.22;95965.63;2057419;28;20554;-57
2023/08/17 03:13:40;;;;;;;16.58;14.80;;;;;;;17.33;94.47;95974.66;2057631;28;20063;-57
2023/08/17 03:14:41;;;;;;;19.00;15.85;;;;;;;17.30;95.61;95974.06;2065559;28;20058;-57
2023/08/17 03:15:42;;;;;;;19.20;17.13;;;;;;;17.24;95.58;95964.88;2066191;28;20058;-57
2023/08/17 03:16:44;;;;;;;20.90;14.93;;;;;;;17.24;95.88;95964.00;2057302;28;20050;-57
2023/08/17 03:17:45;;;;;;;18.52;15.35;;;;;;;17.25;95.44;95971.78;2057634;28;20055;-57
2023/08/17 03:18:47;;;;;;;19.42;16.02;;;;;;;17.22;95.56;95979.06;2056604;28;20495;-57
2023/08/17 03:19:49;;;;;;;16.85;15.13;;;;;;;17.18;95.78;95975.81;2065231;28;20069;-57
2023/08/17 03:20:51;;;;;;;22.48;17.50;;;;;;;17.17;96.37;95967.09;2057376;28;20065;-57
2023/08/17 03:21:52;;;;;;;18.92;16.90;;;;;;;17.15;96.25;95973.41;2049382;29;20055;-57
2023/08/17 03:22:53;;;;;;;18.40;16.30;;;;;;;17.12;95.94;95978.88;2057253;28;20408;-57
2023/08/17 03:23:54;;;;;;;20.25;17.00;;;;;;;17.12;96.12;95974.47;2066030;28;20065;-57
2023/08/17 03:24:55;;;;;;;19.20;16.42;;;;;;;17.11;96.20;95978.06;2057013;28;20066;-57
2023/08/17 03:25:56;;;;;;;22.30;15.98;;;;;;;17.12;96.66;95979.72;2057195;28;20053;-57
2023/08/17 03:26:58;;;;;;;18.83;15.20;;;;;;;17.13;95.87;95985.78;2057138;28;20051;-58
2023/08/17 03:28:00;;;;;;;19.08;15.93;;;;;;;17.11;95.08;95985.09;2056933;28;20050;-57
2023/08/17 03:29:02;;;;;;;21.13;16.95;;;;;;;17.09;95.86;95985.19;2057379;28;20050;-57
2023/08/17 03:30:06;;;;;;;19.23;16.00;;;;;;;17.05;95.54;95981.09;2049523;29;20051;-57
2023/08/17 03:31:10;;;;;;;17.52;15.57;;;;;;;17.04;96.23;95982.06;2057756;28;20061;-58
2023/08/17 03:32:12;;;;;;;20.00;15.93;;;;;;;17.01;96.47;95982.28;2056822;28;20050;-57
2023/08/17 03:33:13;;;;;;;19.73;16.83;;;;;;;17.01;96.60;95984.09;2049486;28;20058;-57
2023/08/17 03:34:14;;;;;;;17.75;15.70;;;;;;;16.97;96.89;95979.06;2049251;29;20058;-57
2023/08/17 03:35:15;;;;;;;17.73;15.85;;;;;;;16.96;97.16;95984.41;2056746;28;20062;-56
2023/08/17 03:36:16;;;;;;;18.92;16.33;;;;;;;16.94;97.01;95986.31;2056959;28;20051;-57
2023/08/17 03:37:17;;;;;;;19.40;16.58;;;;;;;16.87;97.44;95978.06;2057077;28;20051;-57
2023/08/17 03:38:19;;;;;;;20.35;15.55;;;;;;;16.88;96.57;95987.59;2065040;28;20067;-57
2023/08/17 03:39:20;;;;;;;20.20;16.00;;;;;;;16.86;97.64;95986.03;2065640;28;20406;-57
2023/08/17 03:40:21;;;;;;;21.35;16.73;;;;;;;16.83;96.76;95989.72;2065742;28;20046;-57
2023/08/17 03:41:25;;;;;;;18.25;15.13;;;;;;;16.84;97.43;95983.53;2066059;28;20057;-57
2023/08/17 03:42:26;;;;;;;21.83;16.02;;;;;;;16.79;97.28;95977.78;2056476;28;20066;-57
2023/08/17 03:43:27;;;;;;;18.05;15.93;;;;;;;16.85;97.06;95990.44;2056695;28;20051;-56
2023/08/17 03:44:28;;;;;;;18.30;16.33;;;;;;;16.82;96.93;95990.66;2065556;28;20054;-59
2023/08/17 03:45:30;;;;;;;20.63;16.50;;;;;;;16.75;97.26;95977.09;2065840;28;20061;-55
2023/08/17 03:46:31;;;;;;;19.23;16.23;;;;;;;16.79;97.61;95985.66;2056988;28;20050;-57
2023/08/17 03:47:33;;;;;;;19.65;17.00;;;;;;;16.80;97.48;95984.69;2048899;28;20051;-57
2023/08/17 03:48:35;;;;;;;20.88;17.20;;;;;;;16.76;97.39;95977.97;2057608;28;20051;-57
2023/08/17 03:49:36;;;;;;;19.48;17.48;;;;;;;16.79;97.29;95983.03;2065265;28;20054;-57
2023/08/17 03:50:38;;;;;;;19.08;16.55;;;;;;;16.74;98.12;95972.00;2065760;28;20053;-57
2023/08/17 03:51:40;;;;;;;20.63;16.50;;;;;;;16.80;97.60;95979.44;2064829;28;20065;-57
2023/08/17 03:52:41;;;;;;;18.23;16.33;;;;;;;16.80;97.42;95981.22;2065293;28;20061;-57
2023/08/17 03:53:42;;;;;;;21.90;17.15;;;;;;;16.80;97.73;95978.59;2065854;28;20058;-57
2023/08/17 03:54:43;;;;;;;20.23;17.33;;;;;;;16.80;97.56;95986.47;2065908;28;20401;-57
2023/08/17 03:55:48;;;;;;;18.38;16.40;;;;;;;16.80;98.34;95987.31;2065671;28;20046;-56
2023/08/17 03:56:49;;;;;;;19.05;17.17;;;;;;;16.78;97.51;95991.81;2065854;28;20062;-57
2023/08/17 03:57:50;;;;;;;22.58;18.67;;;;;;;16.79;97.89;95988.28;2065154;28;20061;-58
2023/08/17 03:58:53;;;;;;;22.10;17.58;;;;;;;16.72;97.96;95976.50;2057082;28;20063;-59
2023/08/17 03:59:54;;;;;;;22.77;17.60;;;;;;;16.73;98.78;95991.28;2057123;28;20380;-59
2023/08/17 04:00:55;;;;;;;20.88;18.73;;;;;;;16.71;98.98;95990.56;2057060;28;20055;-59
2023/08/17 04:02:03;;;;;;;21.88;17.40;;;;;;;16.71;98.32;95990.56;2058092;28;20054;-59
2023/08/17 04:03:04;;;;;;;20.58;17.80;;;;;;;16.70;98.22;95991.50;2065203;28;20395;-59
2023/08/17 04:04:05;;;;;;;20.08;17.42;;;;;;;16.65;97.86;95985.75;2056406;28;20431;-59
2023/08/17 04:05:06;;;;;;;22.38;17.95;;;;;;;16.65;98.13;95985.75;2057086;28;20509;-59
2023/08/17 04:06:10;;;;;;;20.40;18.20;;;;;;;16.66;98.97;95990.06;2064654;28;20054;-57
2023/08/17 04:07:11;;;;;;;19.75;16.50;;;;;;;16.67;98.04;95994.34;2065816;28;20050;-57
2023/08/17 04:08:12;;;;;;;19.63;17.33;;;;;;;16.68;98.56;95998.63;2057104;28;20042;-59
2023/08/17 04:09:13;;;;;;;20.63;18.10;;;;;;;16.67;98.45;96000.44;2057136;28;20057;-59
2023/08/17 04:10:14;;;;;;;22.08;18.35;;;;;;;16.67;98.80;96000.44;2065942;28;20057;-59
2023/08/17 04:11:15;;;;;;;21.70;17.23;;;;;;;16.65;98.60;96004.97;2065600;28;20073;-59
2023/08/17 04:12:17;;;;;;;23.45;18.52;;;;;;;16.66;98.59;96003.19;2065611;28;20058;-58
2023/08/17 04:13:18;;;;;;;21.45;17.08;;;;;;;16.64;98.71;96000.66;2065431;28;20057;-58
2023/08/17 04:14:19;;;;;;;21.00;18.20;;;;;;;16.63;98.83;96006.03;2065789;28;20077;-58
2023/08/17 04:15:22;;;;;;;22.33;17.73;;;;;;;16.58;97.96;96011.56;2056799;28;20067;-58
2023/08/17 04:16:24;;;;;;;20.05;16.75;;;;;;;16.54;97.42;96013.59;2057248;28;20510;-59
2023/08/17 04:17:25;;;;;;;20.55;17.13;;;;;;;16.52;97.21;96018.09;2056998;28;20077;-59
2023/08/17 04:18:26;;;;;;;20.65;16.80;;;;;;;16.51;97.66;96011.16;2057088;28;20415;-58
2023/08/17 04:19:27;;;;;;;20.33;16.88;;;;;;;16.52;96.98;96012.03;2065146;28;20438;-59
2023/08/17 04:20:29;;;;;;;20.25;16.02;;;;;;;16.48;98.07;96008.75;2049037;29;20055;-57
2023/08/17 04:21:30;;;;;;;20.52;16.08;;;;;;;16.44;97.41;96003.84;2057232;28;20552;-59
2023/08/17 04:22:31;;;;;;;22.08;16.38;;;;;;;16.48;97.68;96007.94;2065173;28;20058;-59
2023/08/17 04:23:33;;;;;;;18.13;15.38;;;;;;;16.47;98.02;96006.25;2065240;28;20058;-59
2023/08/17 04:24:34;;;;;;;19.77;17.33;;;;;;;16.46;97.46;96015.88;2065282;28;20058;-59
2023/08/17 04:25:35;;;;;;;20.92;16.42;;;;;;;16.48;97.96;96007.94;2056849;28;20058;-59
2023/08/17 04:26:36;;;;;;;22.55;16.17;;;;;;;16.47;97.51;96006.25;2057281;28;20515;-59
2023/08/17 04:27:38;;;;;;;19.83;16.17;;;;;;;16.45;97.38;96003.75;2057376;28;20063;-58
2023/08/17 04:28:39;;;;;;;18.25;16.00;;;;;;;16.51;96.91;96011.16;2056540;28;20062;-59
2023/08/17 04:29:40;;;;;;;18.67;16.67;;;;;;;16.52;97.23;96002.38;2057097;28;20059;-59
2023/08/17 04:30:42;;;;;;;20.30;14.98;;;;;;;16.57;97.54;95998.56;2049324;28;20054;-59
2023/08/17 04:31:43;;;;;;;25.30;17.10;;;;;;;16.61;96.99;95998.25;2056706;28;20499;-59
2023/08/17 04:32:44;;;;;;;17.33;14.82;;;;;;;16.66;96.76;95997.94;2064687;28;20057;-57
2023/08/17 04:33:45;;;;;;;21.55;16.80;;;;;;;16.70;96.81;96005.44;2064810;28;20061;-57
2023/08/17 04:34:48;;;;;;;20.45;16.27;;;;;;;16.73;96.07;96000.00;2056731;28;20058;-57
2023/08/17 04:35:50;;;;;;;20.13;15.40;;;;;;;16.75;95.54;95999.88;2056932;28;20054;-58
2023/08/17 04:36:51;;;;;;;18.75;15.57;;;;;;;16.80;95.22;96005.66;2056991;28;20071;-59
2023/08/17 04:37:53;;;;;;;19.55;16.83;;;;;;;16.84;95.31;96001.03;2057051;28;20511;-57
2023/08/17 04:38:54;;;;;;;19.50;16.42;;;;;;;16.87;95.86;96006.91;2048947;29;20059;-58
2023/08/17 04:39:55;;;;;;;17.88;16.08;;;;;;;16.96;95.53;96006.22;2056622;28;20054;-59
2023/08/17 04:40:57;;;;;;;18.20;15.00;;;;;;;17.03;94.74;96005.81;2056333;28;20061;-59
2023/08/17 04:41:58;;;;;;;23.33;14.73;;;;;;;17.09;93.88;96013.22;2041264;29;20513;-56
2023/08/17 04:43:05;;;;;;;18.30;14.68;;;;;;;17.17;94.22;96018.75;2041606;29;20516;-59
2023/08/17 04:44:06;;;;;;;15.63;14.02;;;;;;;17.23;93.62;96015.66;2049211;28;20047;-59
2023/08/17 04:45:08;;;;;;;18.75;13.98;;;;;;;17.30;93.05;96011.66;2056769;28;20368;-59
2023/08/17 04:46:13;;;;;;;17.30;13.90;;;;;;;17.36;92.70;96011.19;2057028;28;20050;-57
2023/08/17 04:47:15;;;;;;;15.07;12.80;;;;;;;17.41;91.94;96009.06;2057203;28;20372;-57
2023/08/17 04:48:17;;;;;;;17.23;14.27;;;;;;;17.45;91.48;96017.53;2056878;28;20518;-57